createdAt,value
2023-01-26T00:00:00.050Z,959.06
2023-01-26T00:00:11.206Z,959.06
2023-01-26T00:00:21.880Z,959.07
2023-01-26T00:00:32.842Z,959.07
2023-01-26T00:00:43.629Z,959.07
2023-01-26T00:00:54.680Z,959.05
2023-01-26T00:01:05.645Z,959.04
2023-01-26T00:01:16.404Z,959.03
2023-01-26T00:01:27.455Z,959.03
2023-01-26T00:01:38.415Z,959.03
2023-01-26T00:01:49.203Z,959.03
2023-01-26T00:01:59.764Z,959.03
2023-01-26T00:02:10.720Z,959.04
2023-01-26T00:02:21.610Z,959.03
2023-01-26T00:02:32.112Z,959.04
2023-01-26T00:02:43.107Z,959.03
2023-01-26T00:02:53.869Z,959.02
2023-01-26T00:03:04.954Z,959.01
2023-01-26T00:03:15.865Z,959.01
2023-01-26T00:03:26.685Z,959.02
2023-01-26T00:03:37.745Z,959.01
2023-01-26T00:03:48.743Z,959.01
2023-01-26T00:03:59.527Z,959.01
2023-01-26T00:04:10.115Z,959.01
2023-01-26T00:04:21.079Z,959.01
2023-01-26T00:04:31.854Z,959.01
2023-01-26T00:04:42.881Z,959.00
2023-01-26T00:04:53.849Z,959.00
2023-01-26T00:05:04.610Z,959.00
2023-01-26T00:05:15.660Z,958.99
2023-01-26T00:05:26.664Z,958.99
2023-01-26T00:05:37.452Z,958.99
2023-01-26T00:05:48.479Z,958.99
2023-01-26T00:05:59.463Z,958.98
2023-01-26T00:06:10.260Z,958.98
2023-01-26T00:06:21.289Z,958.98
2023-01-26T00:06:32.254Z,958.98
2023-01-26T00:06:43.021Z,958.98
2023-01-26T00:06:54.156Z,958.98
2023-01-26T00:07:05.086Z,958.97
2023-01-26T00:07:15.860Z,958.97
2023-01-26T00:07:26.894Z,958.97
2023-01-26T00:07:37.869Z,958.96
2023-01-26T00:07:48.689Z,958.97
2023-01-26T00:07:59.680Z,958.98
2023-01-26T00:08:10.647Z,958.96
2023-01-26T00:08:21.413Z,958.96
2023-01-26T00:08:32.463Z,958.96
2023-01-26T00:08:43.427Z,958.94
2023-01-26T00:08:54.250Z,958.93
2023-01-26T00:09:05.255Z,958.93
2023-01-26T00:09:16.231Z,958.94
2023-01-26T00:09:27.003Z,958.93
2023-01-26T00:09:38.042Z,958.94
2023-01-26T00:09:49.000Z,958.94
2023-01-26T00:09:59.781Z,958.94
2023-01-26T00:10:11.122Z,958.94
2023-01-26T00:10:21.676Z,958.94
2023-01-26T00:10:32.458Z,958.94
2023-01-26T00:10:43.498Z,958.93
2023-01-26T00:10:54.482Z,958.93
2023-01-26T00:11:05.257Z,958.92
2023-01-26T00:11:16.364Z,958.94
2023-01-26T00:11:27.301Z,958.93
2023-01-26T00:11:38.055Z,958.92
2023-01-26T00:11:49.113Z,958.92
2023-01-26T00:12:00.093Z,958.93
2023-01-26T00:12:10.862Z,958.92
2023-01-26T00:12:21.917Z,958.91
2023-01-26T00:12:32.947Z,958.91
2023-01-26T00:12:43.719Z,958.90
2023-01-26T00:12:54.720Z,958.90
2023-01-26T00:13:05.718Z,958.89
2023-01-26T00:13:16.492Z,958.89
2023-01-26T00:13:27.536Z,958.88
2023-01-26T00:13:38.528Z,958.88
2023-01-26T00:13:49.284Z,958.85
2023-01-26T00:14:00.334Z,958.86
2023-01-26T00:14:11.313Z,958.85
2023-01-26T00:14:22.125Z,958.86
2023-01-26T00:14:33.125Z,958.85
2023-01-26T00:14:44.101Z,958.84
2023-01-26T00:14:54.863Z,958.84
2023-01-26T00:15:05.901Z,958.83
2023-01-26T00:15:16.911Z,958.84
2023-01-26T00:15:27.654Z,958.83
2023-01-26T00:15:38.698Z,958.83
2023-01-26T00:15:49.772Z,958.82
2023-01-26T00:16:00.572Z,958.82
2023-01-26T00:16:11.114Z,958.82
2023-01-26T00:16:22.189Z,958.82
2023-01-26T00:16:32.993Z,958.81
2023-01-26T00:16:44.003Z,958.80
2023-01-26T00:16:54.986Z,958.81
2023-01-26T00:17:05.774Z,958.80
2023-01-26T00:17:16.795Z,958.81
2023-01-26T00:17:27.823Z,958.81
2023-01-26T00:17:38.611Z,958.82
2023-01-26T00:17:49.614Z,958.81
2023-01-26T00:18:00.566Z,958.81
2023-01-26T00:18:11.369Z,958.81
2023-01-26T00:18:22.386Z,958.81
2023-01-26T00:18:33.351Z,958.80
2023-01-26T00:18:44.129Z,958.79
2023-01-26T00:18:55.166Z,958.79
2023-01-26T00:19:06.132Z,958.79
2023-01-26T00:19:16.960Z,958.79
2023-01-26T00:19:27.972Z,958.79
2023-01-26T00:19:38.947Z,958.78
2023-01-26T00:19:49.704Z,958.77
2023-01-26T00:20:00.753Z,958.78
2023-01-26T00:20:12.037Z,958.78
2023-01-26T00:20:22.949Z,958.77
2023-01-26T00:20:33.947Z,958.76
2023-01-26T00:20:44.937Z,958.75
2023-01-26T00:20:55.701Z,958.75
2023-01-26T00:21:06.763Z,958.75
2023-01-26T00:21:17.749Z,958.75
2023-01-26T00:21:28.533Z,958.75
2023-01-26T00:21:39.578Z,958.75
2023-01-26T00:21:50.555Z,958.76
2023-01-26T00:22:01.331Z,958.75
2023-01-26T00:22:12.375Z,958.76
2023-01-26T00:22:23.348Z,958.76
2023-01-26T00:22:34.132Z,958.76
2023-01-26T00:22:45.154Z,958.76
2023-01-26T00:22:56.144Z,958.74
2023-01-26T00:23:06.900Z,958.73
2023-01-26T00:23:17.955Z,958.73
2023-01-26T00:23:28.919Z,958.73
2023-01-26T00:23:39.698Z,958.74
2023-01-26T00:23:50.790Z,958.74
2023-01-26T00:24:01.797Z,958.74
2023-01-26T00:24:12.604Z,958.74
2023-01-26T00:24:23.132Z,958.73
2023-01-26T00:24:34.074Z,958.73
2023-01-26T00:24:44.841Z,958.72
2023-01-26T00:24:55.887Z,958.72
2023-01-26T00:25:06.870Z,958.72
2023-01-26T00:25:17.621Z,958.71
2023-01-26T00:25:28.668Z,958.71
2023-01-26T00:25:39.643Z,958.71
2023-01-26T00:25:50.436Z,958.71
2023-01-26T00:26:01.487Z,958.71
2023-01-26T00:26:12.452Z,958.70
2023-01-26T00:26:23.270Z,958.71
2023-01-26T00:26:34.281Z,958.70
2023-01-26T00:26:45.255Z,958.72
2023-01-26T00:26:56.022Z,958.72
2023-01-26T00:27:07.074Z,958.72
2023-01-26T00:27:18.043Z,958.72
2023-01-26T00:27:28.811Z,958.73
2023-01-26T00:27:39.899Z,958.73
2023-01-26T00:27:50.880Z,958.73
2023-01-26T00:28:01.618Z,958.73
2023-01-26T00:28:12.678Z,958.73
2023-01-26T00:28:23.624Z,958.73
2023-01-26T00:28:34.415Z,958.73
2023-01-26T00:28:45.458Z,958.73
2023-01-26T00:28:56.425Z,958.72
2023-01-26T00:29:07.208Z,958.72
2023-01-26T00:29:18.305Z,958.72
2023-01-26T00:29:29.236Z,958.73
2023-01-26T00:29:40.030Z,958.73
2023-01-26T00:29:51.054Z,958.72
2023-01-26T00:30:02.061Z,958.71
2023-01-26T00:30:13.212Z,958.71
2023-01-26T00:30:23.429Z,958.72
2023-01-26T00:30:34.452Z,958.72
2023-01-26T00:30:45.253Z,958.71
2023-01-26T00:30:56.305Z,958.72
2023-01-26T00:31:07.277Z,958.72
2023-01-26T00:31:18.113Z,958.70
2023-01-26T00:31:28.776Z,958.70
2023-01-26T00:31:39.395Z,958.70
2023-01-26T00:31:50.344Z,958.68
2023-01-26T00:32:00.853Z,958.69
2023-01-26T00:32:11.823Z,958.68
2023-01-26T00:32:22.614Z,958.69
2023-01-26T00:32:33.654Z,958.69
2023-01-26T00:32:44.627Z,958.67
2023-01-26T00:32:55.396Z,958.67
2023-01-26T00:33:06.462Z,958.68
2023-01-26T00:33:17.422Z,958.66
2023-01-26T00:33:28.193Z,958.67
2023-01-26T00:33:39.234Z,958.68
2023-01-26T00:33:50.209Z,958.67
2023-01-26T00:34:01.039Z,958.68
2023-01-26T00:34:12.029Z,958.68
2023-01-26T00:34:23.026Z,958.69
2023-01-26T00:34:33.775Z,958.69
2023-01-26T00:34:44.827Z,958.69
2023-01-26T00:34:55.793Z,958.69
2023-01-26T00:35:06.596Z,958.68
2023-01-26T00:35:17.636Z,958.69
2023-01-26T00:35:28.596Z,958.68
2023-01-26T00:35:39.374Z,958.69
2023-01-26T00:35:50.436Z,958.69
2023-01-26T00:36:01.418Z,958.71
2023-01-26T00:36:12.202Z,958.71
2023-01-26T00:36:23.346Z,958.70
2023-01-26T00:36:34.283Z,958.70
2023-01-26T00:36:45.038Z,958.71
2023-01-26T00:36:56.098Z,958.71
2023-01-26T00:37:07.070Z,958.72
2023-01-26T00:37:17.845Z,958.72
2023-01-26T00:37:28.899Z,958.71
2023-01-26T00:37:39.899Z,958.70
2023-01-26T00:37:50.641Z,958.69
2023-01-26T00:38:01.699Z,958.69
2023-01-26T00:38:12.678Z,958.70
2023-01-26T00:38:23.434Z,958.70
2023-01-26T00:38:34.480Z,958.70
2023-01-26T00:38:45.466Z,958.69
2023-01-26T00:38:56.285Z,958.68
2023-01-26T00:39:07.276Z,958.68
2023-01-26T00:39:18.243Z,958.69
2023-01-26T00:39:29.020Z,958.70
2023-01-26T00:39:40.054Z,958.69
2023-01-26T00:39:51.030Z,958.68
2023-01-26T00:40:01.807Z,958.68
2023-01-26T00:40:13.192Z,958.68
2023-01-26T00:40:23.805Z,958.68
2023-01-26T00:40:34.858Z,958.68
2023-01-26T00:40:45.311Z,958.67
2023-01-26T00:40:56.298Z,958.68
2023-01-26T00:41:07.065Z,958.67
2023-01-26T00:41:18.113Z,958.67
2023-01-26T00:41:29.125Z,958.67
2023-01-26T00:41:39.851Z,958.68
2023-01-26T00:41:50.924Z,958.68
2023-01-26T00:42:01.882Z,958.69
2023-01-26T00:42:12.649Z,958.67
2023-01-26T00:42:23.696Z,958.67
2023-01-26T00:42:34.662Z,958.68
2023-01-26T00:42:45.436Z,958.68
2023-01-26T00:42:56.555Z,958.68
2023-01-26T00:43:07.502Z,958.67
2023-01-26T00:43:18.260Z,958.68
2023-01-26T00:43:29.306Z,958.66
2023-01-26T00:43:40.264Z,958.68
2023-01-26T00:43:51.028Z,958.67
2023-01-26T00:44:02.096Z,958.67
2023-01-26T00:44:13.091Z,958.67
2023-01-26T00:44:23.836Z,958.66
2023-01-26T00:44:34.935Z,958.66
2023-01-26T00:44:45.906Z,958.66
2023-01-26T00:44:56.665Z,958.66
2023-01-26T00:45:07.704Z,958.66
2023-01-26T00:45:18.685Z,958.66
2023-01-26T00:45:29.440Z,958.66
2023-01-26T00:45:40.504Z,958.65
2023-01-26T00:45:51.454Z,958.67
2023-01-26T00:46:02.241Z,958.66
2023-01-26T00:46:13.315Z,958.67
2023-01-26T00:46:24.284Z,958.67
2023-01-26T00:46:35.115Z,958.67
2023-01-26T00:46:45.643Z,958.66
2023-01-26T00:46:56.634Z,958.66
2023-01-26T00:47:07.366Z,958.65
2023-01-26T00:47:18.418Z,958.65
2023-01-26T00:47:29.385Z,958.64
2023-01-26T00:47:40.142Z,958.64
2023-01-26T00:47:51.193Z,958.65
2023-01-26T00:48:02.159Z,958.64
2023-01-26T00:48:12.933Z,958.64
2023-01-26T00:48:24.910Z,958.63
2023-01-26T00:48:34.871Z,958.65
2023-01-26T00:48:45.642Z,958.64
2023-01-26T00:48:56.730Z,958.63
2023-01-26T00:49:07.688Z,958.64
2023-01-26T00:49:18.461Z,958.64
2023-01-26T00:49:29.524Z,958.64
2023-01-26T00:49:40.475Z,958.64
2023-01-26T00:49:51.255Z,958.64
2023-01-26T00:50:02.289Z,958.64
2023-01-26T00:50:13.588Z,958.63
2023-01-26T00:50:24.406Z,958.64
2023-01-26T00:50:35.454Z,958.63
2023-01-26T00:50:46.423Z,958.63
2023-01-26T00:50:57.183Z,958.64
2023-01-26T00:51:08.303Z,958.63
2023-01-26T00:51:19.224Z,958.64
2023-01-26T00:51:29.993Z,958.64
2023-01-26T00:51:41.057Z,958.62
2023-01-26T00:51:52.025Z,958.63
2023-01-26T00:52:02.799Z,958.62
2023-01-26T00:52:13.838Z,958.63
2023-01-26T00:52:24.824Z,958.62
2023-01-26T00:52:35.589Z,958.61
2023-01-26T00:52:46.631Z,958.62
2023-01-26T00:52:57.619Z,958.61
2023-01-26T00:53:08.370Z,958.60
2023-01-26T00:53:19.410Z,958.62
2023-01-26T00:53:30.385Z,958.60
2023-01-26T00:53:41.209Z,958.59
2023-01-26T00:53:52.233Z,958.60
2023-01-26T00:54:03.236Z,958.59
2023-01-26T00:54:13.977Z,958.59
2023-01-26T00:54:25.025Z,958.58
2023-01-26T00:54:36.020Z,958.58
2023-01-26T00:54:46.775Z,958.58
2023-01-26T00:54:57.817Z,958.58
2023-01-26T00:55:08.819Z,958.58
2023-01-26T00:55:19.559Z,958.57
2023-01-26T00:55:30.623Z,958.57
2023-01-26T00:55:41.589Z,958.57
2023-01-26T00:55:52.386Z,958.59
2023-01-26T00:56:03.421Z,958.59
2023-01-26T00:56:14.408Z,958.59
2023-01-26T00:56:25.225Z,958.59
2023-01-26T00:56:36.248Z,958.60
2023-01-26T00:56:47.230Z,958.59
2023-01-26T00:56:58.010Z,958.58
2023-01-26T00:57:09.079Z,958.58
2023-01-26T00:57:20.037Z,958.58
2023-01-26T00:57:30.800Z,958.58
2023-01-26T00:57:41.867Z,958.57
2023-01-26T00:57:52.829Z,958.57
2023-01-26T00:58:03.613Z,958.58
2023-01-26T00:58:14.652Z,958.58
2023-01-26T00:58:25.637Z,958.58
2023-01-26T00:58:36.406Z,958.58
2023-01-26T00:58:47.462Z,958.57
2023-01-26T00:58:58.484Z,958.55
2023-01-26T00:59:09.206Z,958.54
2023-01-26T00:59:20.259Z,958.55
2023-01-26T00:59:31.231Z,958.56
2023-01-26T00:59:42.011Z,958.56
2023-01-26T00:59:53.075Z,958.56
2023-01-26T01:00:04.025Z,958.57
2023-01-26T01:00:14.814Z,958.56
2023-01-26T01:00:25.852Z,958.55
2023-01-26T01:00:36.886Z,958.54
2023-01-26T01:00:47.705Z,958.52
2023-01-26T01:00:58.192Z,958.52
2023-01-26T01:01:09.163Z,958.51
2023-01-26T01:01:19.911Z,958.51
2023-01-26T01:01:30.966Z,958.51
2023-01-26T01:01:41.970Z,958.51
2023-01-26T01:01:52.714Z,958.52
2023-01-26T01:02:03.848Z,958.52
2023-01-26T01:02:14.859Z,958.52
2023-01-26T01:02:25.591Z,958.51
2023-01-26T01:02:36.636Z,958.51
2023-01-26T01:02:47.614Z,958.52
2023-01-26T01:02:58.379Z,958.51
2023-01-26T01:03:09.427Z,958.51
2023-01-26T01:03:20.405Z,958.50
2023-01-26T01:03:31.260Z,958.50
2023-01-26T01:03:41.727Z,958.50
2023-01-26T01:03:52.715Z,958.51
2023-01-26T01:04:03.485Z,958.51
2023-01-26T01:04:14.533Z,958.53
2023-01-26T01:04:25.493Z,958.52
2023-01-26T01:04:36.329Z,958.51
2023-01-26T01:04:47.336Z,958.52
2023-01-26T01:04:58.321Z,958.53
2023-01-26T01:05:09.078Z,958.52
2023-01-26T01:05:20.123Z,958.52
2023-01-26T01:05:31.093Z,958.53
2023-01-26T01:05:41.901Z,958.53
2023-01-26T01:05:52.464Z,958.53
2023-01-26T01:06:03.407Z,958.51
2023-01-26T01:06:14.217Z,958.52
2023-01-26T01:06:25.253Z,958.52
2023-01-26T01:06:36.266Z,958.52
2023-01-26T01:06:47.011Z,958.53
2023-01-26T01:06:58.081Z,958.53
2023-01-26T01:07:09.043Z,958.52
2023-01-26T01:07:19.809Z,958.52
2023-01-26T01:07:30.877Z,958.51
2023-01-26T01:07:41.826Z,958.51
2023-01-26T01:07:52.605Z,958.52
2023-01-26T01:08:03.662Z,958.52
2023-01-26T01:08:14.626Z,958.51
2023-01-26T01:08:25.385Z,958.50
2023-01-26T01:08:36.446Z,958.50
2023-01-26T01:08:47.413Z,958.49
2023-01-26T01:08:58.189Z,958.50
2023-01-26T01:09:09.260Z,958.49
2023-01-26T01:09:20.219Z,958.48
2023-01-26T01:09:30.991Z,958.47
2023-01-26T01:09:42.041Z,958.47
2023-01-26T01:09:53.041Z,958.48
2023-01-26T01:10:03.803Z,958.48
2023-01-26T01:10:14.934Z,958.48
2023-01-26T01:10:25.859Z,958.47
2023-01-26T01:10:36.633Z,958.48
2023-01-26T01:10:47.687Z,958.48
2023-01-26T01:10:58.657Z,958.48
2023-01-26T01:11:09.432Z,958.49
2023-01-26T01:11:20.509Z,958.50
2023-01-26T01:11:31.480Z,958.50
2023-01-26T01:11:42.253Z,958.50
2023-01-26T01:11:53.306Z,958.51
2023-01-26T01:12:04.287Z,958.50
2023-01-26T01:12:15.061Z,958.51
2023-01-26T01:12:26.108Z,958.51
2023-01-26T01:12:37.117Z,958.50
2023-01-26T01:12:47.874Z,958.50
2023-01-26T01:12:58.925Z,958.50
2023-01-26T01:13:09.893Z,958.51
2023-01-26T01:13:20.660Z,958.50
2023-01-26T01:13:31.712Z,958.50
2023-01-26T01:13:42.736Z,958.50
2023-01-26T01:13:53.445Z,958.49
2023-01-26T01:14:04.519Z,958.50
2023-01-26T01:14:15.477Z,958.50
2023-01-26T01:14:26.239Z,958.50
2023-01-26T01:14:37.283Z,958.49
2023-01-26T01:14:48.247Z,958.49
2023-01-26T01:14:59.016Z,958.49
2023-01-26T01:15:10.109Z,958.49
2023-01-26T01:15:21.176Z,958.49
2023-01-26T01:15:31.881Z,958.49
2023-01-26T01:15:42.943Z,958.49
2023-01-26T01:15:53.917Z,958.49
2023-01-26T01:16:04.704Z,958.48
2023-01-26T01:16:15.717Z,958.49
2023-01-26T01:16:26.701Z,958.50
2023-01-26T01:16:37.458Z,958.50
2023-01-26T01:16:48.591Z,958.49
2023-01-26T01:16:59.499Z,958.50
2023-01-26T01:17:10.284Z,958.50
2023-01-26T01:17:21.362Z,958.50
2023-01-26T01:17:32.313Z,958.49
2023-01-26T01:17:43.096Z,958.50
2023-01-26T01:17:54.138Z,958.50
2023-01-26T01:18:05.102Z,958.50
2023-01-26T01:18:15.871Z,958.51
2023-01-26T01:18:26.930Z,958.50
2023-01-26T01:18:37.887Z,958.51
2023-01-26T01:18:48.674Z,958.50
2023-01-26T01:18:59.697Z,958.50
2023-01-26T01:19:10.663Z,958.51
2023-01-26T01:19:21.446Z,958.49
2023-01-26T01:19:32.521Z,958.49
2023-01-26T01:19:43.478Z,958.49
2023-01-26T01:19:54.228Z,958.49
2023-01-26T01:20:05.283Z,958.50
2023-01-26T01:20:16.263Z,958.50
2023-01-26T01:20:27.007Z,958.49
2023-01-26T01:20:38.061Z,958.50
2023-01-26T01:20:49.034Z,958.49
2023-01-26T01:20:59.809Z,958.49
2023-01-26T01:21:10.861Z,958.50
2023-01-26T01:21:21.828Z,958.49
2023-01-26T01:21:32.590Z,958.48
2023-01-26T01:21:43.660Z,958.48
2023-01-26T01:21:54.632Z,958.49
2023-01-26T01:22:05.405Z,958.49
2023-01-26T01:22:16.472Z,958.49
2023-01-26T01:22:27.466Z,958.49
2023-01-26T01:22:38.226Z,958.50
2023-01-26T01:22:49.272Z,958.51
2023-01-26T01:23:00.239Z,958.51
2023-01-26T01:23:11.022Z,958.50
2023-01-26T01:23:22.070Z,958.50
2023-01-26T01:23:33.093Z,958.49
2023-01-26T01:23:43.915Z,958.49
2023-01-26T01:23:54.931Z,958.49
2023-01-26T01:24:05.911Z,958.49
2023-01-26T01:24:16.703Z,958.49
2023-01-26T01:24:27.723Z,958.49
2023-01-26T01:24:38.697Z,958.49
2023-01-26T01:24:49.500Z,958.48
2023-01-26T01:25:00.554Z,958.51
2023-01-26T01:25:11.497Z,958.51
2023-01-26T01:25:22.281Z,958.50
2023-01-26T01:25:33.339Z,958.49
2023-01-26T01:25:44.305Z,958.49
2023-01-26T01:25:55.066Z,958.50
2023-01-26T01:26:06.119Z,958.48
2023-01-26T01:26:17.077Z,958.50
2023-01-26T01:26:27.876Z,958.49
2023-01-26T01:26:38.917Z,958.50
2023-01-26T01:26:49.899Z,958.50
2023-01-26T01:27:00.670Z,958.50
2023-01-26T01:27:11.719Z,958.50
2023-01-26T01:27:22.695Z,958.50
2023-01-26T01:27:33.458Z,958.50
2023-01-26T01:27:44.544Z,958.49
2023-01-26T01:27:55.489Z,958.51
2023-01-26T01:28:06.292Z,958.51
2023-01-26T01:28:17.300Z,958.50
2023-01-26T01:28:28.272Z,958.50
2023-01-26T01:28:39.044Z,958.52
2023-01-26T01:28:50.089Z,958.53
2023-01-26T01:29:01.055Z,958.52
2023-01-26T01:29:11.849Z,958.51
2023-01-26T01:29:22.901Z,958.52
2023-01-26T01:29:33.858Z,958.51
2023-01-26T01:29:44.624Z,958.51
2023-01-26T01:29:55.686Z,958.52
2023-01-26T01:30:06.636Z,958.52
2023-01-26T01:30:17.402Z,958.52
2023-01-26T01:30:28.522Z,958.53
2023-01-26T01:30:39.001Z,958.53
2023-01-26T01:30:49.792Z,958.52
2023-01-26T01:31:00.920Z,958.51
2023-01-26T01:31:11.963Z,958.50
2023-01-26T01:31:22.852Z,958.52
2023-01-26T01:31:33.506Z,958.51
2023-01-26T01:31:44.520Z,958.51
2023-01-26T01:31:55.322Z,958.50
2023-01-26T01:32:06.376Z,958.51
2023-01-26T01:32:17.394Z,958.51
2023-01-26T01:32:28.149Z,958.49
2023-01-26T01:32:39.178Z,958.49
2023-01-26T01:32:50.151Z,958.49
2023-01-26T01:33:00.913Z,958.51
2023-01-26T01:33:11.977Z,958.49
2023-01-26T01:33:22.960Z,958.49
2023-01-26T01:33:33.722Z,958.50
2023-01-26T01:33:44.801Z,958.49
2023-01-26T01:33:55.749Z,958.50
2023-01-26T01:34:06.518Z,958.50
2023-01-26T01:34:17.583Z,958.50
2023-01-26T01:34:28.526Z,958.48
2023-01-26T01:34:39.307Z,958.49
2023-01-26T01:34:50.395Z,958.49
2023-01-26T01:35:01.359Z,958.49
2023-01-26T01:35:12.150Z,958.50
2023-01-26T01:35:23.200Z,958.50
2023-01-26T01:35:34.168Z,958.50
2023-01-26T01:35:44.947Z,958.50
2023-01-26T01:35:56.041Z,958.50
2023-01-26T01:36:06.982Z,958.50
2023-01-26T01:36:17.736Z,958.49
2023-01-26T01:36:28.786Z,958.49
2023-01-26T01:36:39.748Z,958.49
2023-01-26T01:36:50.539Z,958.49
2023-01-26T01:37:01.611Z,958.48
2023-01-26T01:37:12.554Z,958.48
2023-01-26T01:37:23.331Z,958.48
2023-01-26T01:37:34.395Z,958.49
2023-01-26T01:37:45.358Z,958.49
2023-01-26T01:37:56.137Z,958.48
2023-01-26T01:38:07.315Z,958.48
2023-01-26T01:38:18.216Z,958.48
2023-01-26T01:38:28.994Z,958.47
2023-01-26T01:38:40.039Z,958.47
2023-01-26T01:38:51.041Z,958.47
2023-01-26T01:39:01.794Z,958.48
2023-01-26T01:39:12.850Z,958.48
2023-01-26T01:39:23.817Z,958.48
2023-01-26T01:39:34.641Z,958.47
2023-01-26T01:39:45.658Z,958.46
2023-01-26T01:39:56.647Z,958.46
2023-01-26T01:40:07.438Z,958.47
2023-01-26T01:40:18.464Z,958.47
2023-01-26T01:40:29.450Z,958.46
2023-01-26T01:40:40.218Z,958.47
2023-01-26T01:40:51.268Z,958.47
2023-01-26T01:41:02.259Z,958.47
2023-01-26T01:41:13.007Z,958.47
2023-01-26T01:41:24.056Z,958.47
2023-01-26T01:41:35.025Z,958.47
2023-01-26T01:41:45.798Z,958.47
2023-01-26T01:41:56.847Z,958.47
2023-01-26T01:42:07.926Z,958.47
2023-01-26T01:42:18.664Z,958.48
2023-01-26T01:42:29.702Z,958.48
2023-01-26T01:42:40.679Z,958.47
2023-01-26T01:42:51.443Z,958.47
2023-01-26T01:43:02.491Z,958.46
2023-01-26T01:43:13.470Z,958.46
2023-01-26T01:43:24.252Z,958.47
2023-01-26T01:43:35.289Z,958.46
2023-01-26T01:43:46.278Z,958.46
2023-01-26T01:43:57.101Z,958.46
2023-01-26T01:44:08.129Z,958.46
2023-01-26T01:44:19.197Z,958.46
2023-01-26T01:44:29.904Z,958.47
2023-01-26T01:44:40.957Z,958.47
2023-01-26T01:44:51.978Z,958.46
2023-01-26T01:45:02.696Z,958.46
2023-01-26T01:45:13.763Z,958.45
2023-01-26T01:45:24.753Z,958.46
2023-01-26T01:45:35.488Z,958.46
2023-01-26T01:45:46.546Z,958.46
2023-01-26T01:45:57.531Z,958.46
2023-01-26T01:46:08.307Z,958.47
2023-01-26T01:46:19.376Z,958.47
2023-01-26T01:46:30.365Z,958.47
2023-01-26T01:46:41.149Z,958.47
2023-01-26T01:46:51.667Z,958.47
2023-01-26T01:47:02.602Z,958.48
2023-01-26T01:47:13.423Z,958.48
2023-01-26T01:47:24.439Z,958.49
2023-01-26T01:47:35.402Z,958.50
2023-01-26T01:47:46.190Z,958.50
2023-01-26T01:47:56.828Z,958.50
2023-01-26T01:48:07.804Z,958.49
2023-01-26T01:48:18.620Z,958.50
2023-01-26T01:48:29.644Z,958.51
2023-01-26T01:48:40.601Z,958.51
2023-01-26T01:48:51.363Z,958.51
2023-01-26T01:49:02.408Z,958.52
2023-01-26T01:49:13.378Z,958.52
2023-01-26T01:49:24.191Z,958.52
2023-01-26T01:49:35.298Z,958.51
2023-01-26T01:49:46.216Z,958.52
2023-01-26T01:49:56.991Z,958.52
2023-01-26T01:50:08.433Z,958.52
2023-01-26T01:50:18.954Z,958.52
2023-01-26T01:50:29.718Z,958.52
2023-01-26T01:50:40.771Z,958.53
2023-01-26T01:50:51.766Z,958.52
2023-01-26T01:51:02.522Z,958.52
2023-01-26T01:51:13.575Z,958.51
2023-01-26T01:51:24.574Z,958.53
2023-01-26T01:51:35.354Z,958.52
2023-01-26T01:51:46.397Z,958.51
2023-01-26T01:51:57.375Z,958.50
2023-01-26T01:52:08.157Z,958.51
2023-01-26T01:52:19.216Z,958.52
2023-01-26T01:52:30.180Z,958.52
2023-01-26T01:52:40.950Z,958.52
2023-01-26T01:52:52.008Z,958.52
2023-01-26T01:53:02.976Z,958.52
2023-01-26T01:53:13.744Z,958.51
2023-01-26T01:53:24.842Z,958.52
2023-01-26T01:53:35.840Z,958.51
2023-01-26T01:53:46.602Z,958.51
2023-01-26T01:53:57.608Z,958.51
2023-01-26T01:54:08.573Z,958.51
2023-01-26T01:54:19.365Z,958.51
2023-01-26T01:54:30.430Z,958.50
2023-01-26T01:54:41.401Z,958.49
2023-01-26T01:54:52.155Z,958.49
2023-01-26T01:55:03.224Z,958.49
2023-01-26T01:55:14.213Z,958.49
2023-01-26T01:55:24.952Z,958.49
2023-01-26T01:55:36.001Z,958.49
2023-01-26T01:55:46.959Z,958.49
2023-01-26T01:55:57.737Z,958.49
2023-01-26T01:56:08.790Z,958.47
2023-01-26T01:56:19.774Z,958.47
2023-01-26T01:56:30.529Z,958.47
2023-01-26T01:56:41.582Z,958.47
2023-01-26T01:56:52.551Z,958.47
2023-01-26T01:57:03.359Z,958.47
2023-01-26T01:57:14.383Z,958.48
2023-01-26T01:57:25.372Z,958.48
2023-01-26T01:57:36.135Z,958.47
2023-01-26T01:57:47.177Z,958.48
2023-01-26T01:57:58.166Z,958.48
2023-01-26T01:58:08.960Z,958.47
2023-01-26T01:58:20.003Z,958.47
2023-01-26T01:58:30.965Z,958.47
2023-01-26T01:58:41.734Z,958.46
2023-01-26T01:58:52.776Z,958.45
2023-01-26T01:59:03.821Z,958.45
2023-01-26T01:59:14.534Z,958.44
2023-01-26T01:59:25.579Z,958.44
2023-01-26T01:59:36.552Z,958.45
2023-01-26T01:59:47.318Z,958.45
2023-01-26T01:59:58.367Z,958.44
2023-01-26T02:00:09.595Z,958.43
2023-01-26T02:00:20.444Z,958.42
2023-01-26T02:00:31.040Z,958.44
2023-01-26T02:00:41.995Z,958.44
2023-01-26T02:00:52.775Z,958.43
2023-01-26T02:01:03.844Z,958.44
2023-01-26T02:01:14.836Z,958.43
2023-01-26T02:01:25.604Z,958.43
2023-01-26T02:01:36.700Z,958.43
2023-01-26T02:01:47.685Z,958.43
2023-01-26T02:01:58.504Z,958.43
2023-01-26T02:02:09.553Z,958.43
2023-01-26T02:02:20.513Z,958.43
2023-01-26T02:02:31.256Z,958.43
2023-01-26T02:02:42.345Z,958.44
2023-01-26T02:02:53.327Z,958.44
2023-01-26T02:03:04.104Z,958.44
2023-01-26T02:03:15.295Z,958.44
2023-01-26T02:03:25.692Z,958.44
2023-01-26T02:03:36.472Z,958.43
2023-01-26T02:03:47.527Z,958.43
2023-01-26T02:03:58.494Z,958.43
2023-01-26T02:04:09.280Z,958.42
2023-01-26T02:04:20.301Z,958.42
2023-01-26T02:04:31.273Z,958.42
2023-01-26T02:04:42.064Z,958.42
2023-01-26T02:04:53.104Z,958.42
2023-01-26T02:05:04.095Z,958.42
2023-01-26T02:05:14.869Z,958.42
2023-01-26T02:05:25.937Z,958.42
2023-01-26T02:05:36.879Z,958.42
2023-01-26T02:05:47.668Z,958.41
2023-01-26T02:05:58.703Z,958.41
2023-01-26T02:06:09.675Z,958.41
2023-01-26T02:06:20.537Z,958.41
2023-01-26T02:06:31.599Z,958.40
2023-01-26T02:06:42.572Z,958.41
2023-01-26T02:06:53.389Z,958.41
2023-01-26T02:07:04.399Z,958.40
2023-01-26T02:07:15.362Z,958.41
2023-01-26T02:07:26.118Z,958.39
2023-01-26T02:07:37.180Z,958.39
2023-01-26T02:07:48.170Z,958.39
2023-01-26T02:07:58.922Z,958.39
2023-01-26T02:08:09.982Z,958.39
2023-01-26T02:08:20.992Z,958.38
2023-01-26T02:08:31.742Z,958.38
2023-01-26T02:08:42.789Z,958.38
2023-01-26T02:08:53.758Z,958.37
2023-01-26T02:09:04.527Z,958.37
2023-01-26T02:09:15.570Z,958.37
2023-01-26T02:09:26.537Z,958.37
2023-01-26T02:09:37.310Z,958.38
2023-01-26T02:09:48.356Z,958.36
2023-01-26T02:09:59.360Z,958.37
2023-01-26T02:10:10.425Z,958.36
2023-01-26T02:10:21.041Z,958.36
2023-01-26T02:10:32.008Z,958.37
2023-01-26T02:10:42.771Z,958.37
2023-01-26T02:10:53.826Z,958.37
2023-01-26T02:11:04.844Z,958.37
2023-01-26T02:11:15.565Z,958.37
2023-01-26T02:11:26.636Z,958.37
2023-01-26T02:11:37.594Z,958.37
2023-01-26T02:11:48.378Z,958.37
2023-01-26T02:11:59.419Z,958.37
2023-01-26T02:12:10.392Z,958.36
2023-01-26T02:12:21.160Z,958.37
2023-01-26T02:12:32.193Z,958.37
2023-01-26T02:12:43.181Z,958.38
2023-01-26T02:12:53.943Z,958.37
2023-01-26T02:13:05.054Z,958.38
2023-01-26T02:13:16.017Z,958.37
2023-01-26T02:13:26.786Z,958.37
2023-01-26T02:13:37.839Z,958.37
2023-01-26T02:13:48.817Z,958.37
2023-01-26T02:13:59.614Z,958.36
2023-01-26T02:14:10.640Z,958.37
2023-01-26T02:14:21.600Z,958.37
2023-01-26T02:14:32.365Z,958.37
2023-01-26T02:14:43.425Z,958.37
2023-01-26T02:14:54.414Z,958.37
2023-01-26T02:15:05.186Z,958.37
2023-01-26T02:15:16.203Z,958.37
2023-01-26T02:15:27.179Z,958.37
2023-01-26T02:15:37.944Z,958.38
2023-01-26T02:15:49.011Z,958.38
2023-01-26T02:16:00.051Z,958.37
2023-01-26T02:16:10.926Z,958.36